Gilford, NH (03249)

9:04 PM EST on February 11, 2016 (GMT -0500)
Gunstock Acres | | Change Station
CLOSE
Current Station
Personal Weather Station
Location: Gilford, NH
Elevation: 1260 ft
Nearby Weather Stations
Active Advisory: Wind Chill Watch

Elev 1260 ft 43.56 °N, 71.35 °W | Updated 3 minutes ago

Clear
Clear
4.2 °F
Feels Like -15 °F
N
17.0
Wind Variable Wind from WNW
Gusts 34.0 mph

Today
High -- | Low -- °F
--% Chance of Precip.
Yesterday
High -- | Low -- °F
Precip. -- in
Pressure 29.91 in
Visibility 10.0 miles
Clouds Clear
Windchill -15 °F
Dew Point -5 °F
Humidity 67%
Rainfall 0.00 in
Snow Depth Not available.
6:50 AM 5:10 PM
Waxing Crescent, 16% visible
METAR KLCI 120155Z AUTO 28009KT 250V320 10SM CLR M14/M22 A2991 RMK AO1
Pressure 29.91 in
Visibility 10.0 miles
Clouds Clear
Windchill -15 °F
Dew Point -5 °F
Humidity 67%
Rainfall 0.00 in
Snow Depth Not available.
6:50 AM 5:10 PM
Waxing Crescent, 16% visible
METAR KLCI 120155Z AUTO 28009KT 250V320 10SM CLR M14/M22 A2991 RMK AO1

10-Day Weather Forecast

Almanac

Astronomy

Feb. 11, 2016 Rise Set
Actual Time
Civil Twilight
Nautical Twilight
Astronomical Twilight
Moon
Length of Visible Light
Length of Day
Tomorrow will be .
, % of the Moon is Illuminated

Today's Extremes

State Highs State Lows

Community

WunderPhotos

Upload Photos

1,892,223 photos uploaded!

WunderBlog® & News

Nearby

Air Quality

  Air Quality AQ Index Pollutant
Not available.

Snow Depth

Station Depth Elevation

Earthquake Activity

City Distance Mag. Time & Date
Minimum magnitude displayed is 2.5.

Coastal Water Temperatures

Place Temperature

Stations

Nearby Weather Stations

Station Location Temp. Windchill Dew Point Humidity Wind Precip. Elev Updated Type
                   

Watches & Warnings

Wind Chill Watch
Issued: 6:03 PM EST Feb. 11, 2016 – National Weather Service

... Wind chill watch in effect from late Saturday night through
Sunday morning...

The National Weather Service in gray has issued a wind chill
watch... which is in effect from late Saturday night through
Sunday morning.

* Hazard types... dangerous wind chill readings.

* Wind chill... as low as 32 below due to temperatures 10 below
to 1 above zero... and winds northwest 10 to 15 mph with gusts
up to 25 mph.

* Timing... late Saturday night and Sunday morning.

* Impacts... frostbite and hypothermia if unprotected from the
cold.

* Winds... northwest 10 to 15 mph with gusts up to 25 mph.

* Temperatures... 10 below to 1 above zero.

Precautionary/preparedness actions...

A wind chill watch means the there is the potential for a
combination of very cold air and strong winds to create
dangerously low wind chill values. Monitor the latest forecasts
and warnings for updates on this situation.